createdAt,value
2022-11-01T00:09:36.426Z,9.80
2022-11-01T00:17:42.003Z,9.80
2022-11-01T00:20:09.888Z,9.80
2022-11-01T00:22:36.991Z,9.80
2022-11-01T00:33:43.541Z,9.80
2022-11-01T00:36:10.747Z,9.80
2022-11-01T00:38:38.237Z,9.80
2022-11-01T00:50:21.888Z,9.80
2022-11-01T00:52:49.031Z,9.70
2022-11-01T00:55:16.194Z,9.70
2022-11-01T01:06:44.600Z,9.70
2022-11-01T01:09:11.878Z,9.70
2022-11-01T01:11:39.033Z,9.70
2022-11-01T01:18:31.722Z,9.70
2022-11-01T01:21:03.622Z,9.80
2022-11-01T01:27:36.903Z,9.70
2022-11-01T01:30:05.606Z,9.70
2022-11-01T01:32:32.806Z,9.70
2022-11-01T02:07:00.623Z,9.40
2022-11-01T02:09:29.498Z,9.40
2022-11-01T03:01:23.301Z,9.00
2022-11-01T03:04:39.529Z,8.90
2022-11-01T03:07:11.212Z,8.90
2022-11-01T03:13:59.147Z,8.90
2022-11-01T03:16:41.457Z,8.80
2022-11-01T03:19:24.241Z,8.80
2022-11-01T03:22:13.087Z,8.80
2022-11-01T03:25:40.988Z,8.90
2022-11-01T03:28:22.825Z,8.90
2022-11-01T03:35:35.739Z,8.90
2022-11-01T03:38:08.310Z,8.90
2022-11-01T03:54:45.409Z,8.90
2022-11-01T03:57:12.681Z,8.90
2022-11-01T04:04:59.595Z,8.90
2022-11-01T04:07:26.671Z,8.90
2022-11-01T04:09:53.763Z,8.80
2022-11-01T04:17:57.441Z,8.90
2022-11-01T04:20:33.722Z,8.80
2022-11-01T04:23:31.804Z,8.80
2022-11-01T04:25:59.021Z,8.80
2022-11-01T04:28:26.024Z,8.80
2022-11-01T04:31:46.563Z,8.80
2022-11-01T04:34:13.659Z,8.80
2022-11-01T04:36:40.664Z,8.80
2022-11-01T04:39:59.710Z,8.80
2022-11-01T04:42:26.837Z,8.70
2022-11-01T04:44:53.900Z,8.80
2022-11-01T04:56:43.796Z,8.80
2022-11-01T04:59:10.928Z,8.90
2022-11-01T05:01:38.231Z,8.90
2022-11-01T05:04:05.445Z,9.00
2022-11-01T05:06:32.502Z,9.10
2022-11-01T05:08:59.639Z,9.00
2022-11-01T05:12:42.444Z,9.10
2022-11-01T05:15:09.824Z,9.10
2022-11-01T05:26:02.098Z,9.10
2022-11-01T05:28:29.172Z,9.10
2022-11-01T05:30:58.152Z,9.00
2022-11-01T05:38:17.838Z,9.00
2022-11-01T05:40:44.922Z,9.10
2022-11-01T05:43:12.206Z,9.00
2022-11-01T05:55:39.551Z,9.00
2022-11-01T05:58:06.832Z,9.00
2022-11-01T06:00:34.919Z,9.00
2022-11-01T06:07:50.651Z,9.10
2022-11-01T06:10:17.721Z,9.10
2022-11-01T06:12:44.822Z,9.10
2022-11-01T06:16:11.782Z,9.10
2022-11-01T06:18:38.916Z,9.10
2022-11-01T06:21:06.114Z,9.10
2022-11-01T06:47:05.183Z,9.20
2022-11-01T06:49:33.236Z,9.10
2022-11-01T06:52:00.293Z,9.20
2022-11-01T06:59:16.568Z,9.30
2022-11-01T07:01:44.364Z,9.30
2022-11-01T07:06:44.166Z,9.30
2022-11-01T07:28:37.667Z,9.40
2022-11-01T07:31:04.967Z,9.40
2022-11-01T07:33:32.208Z,9.40
2022-11-01T07:36:03.980Z,9.40
2022-11-01T07:38:31.636Z,9.50
2022-11-01T07:40:58.738Z,9.40
2022-11-01T08:06:53.486Z,9.80
2022-11-01T08:09:22.284Z,9.80
2022-11-01T08:11:49.539Z,9.80
2022-11-01T08:18:50.617Z,9.90
2022-11-01T08:21:20.526Z,10.00
2022-11-01T08:31:41.420Z,10.20
2022-11-01T08:34:11.893Z,10.30
2022-11-01T08:50:24.648Z,10.60
2022-11-01T08:52:51.667Z,10.60
2022-11-01T08:55:18.759Z,10.60
2022-11-01T08:57:46.952Z,10.70
2022-11-01T09:00:14.557Z,10.70
2022-11-01T09:02:41.610Z,10.70
2022-11-01T09:05:35.215Z,10.70
2022-11-01T09:08:03.163Z,10.80
2022-11-01T09:10:31.269Z,10.90
2022-11-01T09:13:14.037Z,10.90
2022-11-01T09:15:41.141Z,10.90
2022-11-01T09:18:08.341Z,10.90
2022-11-01T09:29:21.250Z,11.00
2022-11-01T09:31:52.841Z,11.10
2022-11-01T09:44:09.858Z,11.30
2022-11-01T09:46:44.739Z,11.40
2022-11-01T09:58:34.804Z,11.90
2022-11-01T10:01:38.925Z,12.00
2022-11-01T10:04:24.780Z,12.10
2022-11-01T10:11:29.446Z,12.30
2022-11-01T10:14:41.383Z,12.50
2022-11-01T10:17:51.877Z,12.60
2022-11-01T10:30:12.378Z,13.00
2022-11-01T10:33:02.869Z,13.20
2022-11-01T10:35:38.683Z,13.20
2022-11-01T10:38:27.975Z,13.30
2022-11-01T10:50:06.851Z,13.50
2022-11-01T10:52:49.507Z,13.60
2022-11-01T10:55:30.567Z,13.60
2022-11-01T10:58:07.128Z,13.60
2022-11-01T11:01:06.821Z,13.70
2022-11-01T11:03:34.679Z,13.70
2022-11-01T11:10:45.596Z,13.90
2022-11-01T11:13:17.120Z,14.00
2022-11-01T11:16:01.783Z,14.10
2022-11-01T11:18:36.763Z,14.20
2022-11-01T11:55:59.359Z,14.30
2022-11-01T11:58:56.903Z,14.40
2022-11-01T12:01:26.150Z,14.50
2022-11-01T12:12:52.280Z,14.50
2022-11-01T12:15:36.971Z,14.60
2022-11-01T12:31:36.353Z,14.70
2022-11-01T12:34:28.468Z,14.70
2022-11-01T12:37:47.156Z,14.60
2022-11-01T12:40:23.515Z,14.70
2022-11-01T12:44:05.116Z,14.60
2022-11-01T12:46:36.258Z,14.60
2022-11-01T12:53:53.263Z,14.60
2022-11-01T12:56:20.363Z,14.70
2022-11-01T13:11:51.186Z,14.90
2022-11-01T14:17:36.157Z,14.30
2022-11-01T14:20:04.154Z,14.20
2022-11-01T14:44:58.736Z,13.80
2022-11-01T14:47:39.239Z,13.70
2022-11-01T15:03:29.709Z,13.40
2022-11-01T15:05:57.372Z,13.40
2022-11-01T15:20:51.733Z,13.20
2022-11-01T15:40:28.830Z,13.00
2022-11-01T15:43:28.279Z,13.00
2022-11-01T15:45:58.726Z,12.90
2022-11-01T15:49:33.012Z,12.80
2022-11-01T15:52:18.074Z,12.80
2022-11-01T16:21:50.686Z,12.60
2022-11-01T16:24:25.388Z,12.70
2022-11-01T16:31:29.039Z,12.80
2022-11-01T16:33:57.771Z,12.80
2022-11-01T16:36:42.763Z,12.80
2022-11-01T16:39:31.295Z,12.80
2022-11-01T16:42:03.660Z,12.80
2022-11-01T16:44:30.708Z,12.80
2022-11-01T16:46:57.785Z,12.80
2022-11-01T17:08:04.169Z,12.80
2022-11-01T17:10:31.550Z,12.80
2022-11-01T17:16:33.352Z,12.70
2022-11-01T17:19:01.971Z,12.80
2022-11-01T17:36:08.988Z,12.80
2022-11-01T17:38:36.123Z,12.80
2022-11-01T17:41:05.979Z,12.80
2022-11-01T17:44:42.274Z,12.80
2022-11-01T17:47:13.584Z,12.80
2022-11-01T17:49:40.632Z,12.80
2022-11-01T18:05:20.900Z,12.80
2022-11-01T18:07:49.853Z,12.90
2022-11-01T18:11:20.965Z,12.90
2022-11-01T18:14:17.277Z,12.90
2022-11-01T18:17:27.717Z,12.90
2022-11-01T18:20:20.299Z,12.90
2022-11-01T18:41:23.283Z,12.80
2022-11-01T18:43:54.343Z,12.80
2022-11-01T18:46:48.930Z,12.80
2022-11-01T18:49:15.974Z,12.80
2022-11-01T18:51:44.564Z,12.80
2022-11-01T18:54:20.097Z,12.70
2022-11-01T19:02:29.062Z,12.80
2022-11-01T19:05:16.519Z,12.70
2022-11-01T19:08:09.484Z,12.80
2022-11-01T19:10:33.081Z,12.80
2022-11-01T19:21:35.706Z,12.80
2022-11-01T19:28:57.544Z,12.80
2022-11-01T19:31:43.136Z,12.70
2022-11-01T19:42:59.107Z,12.60
2022-11-01T19:45:33.504Z,12.60
2022-11-01T19:52:28.970Z,12.60
2022-11-01T19:54:56.122Z,12.50
2022-11-01T20:10:02.440Z,12.40
2022-11-01T20:12:29.515Z,12.40
2022-11-01T20:23:40.540Z,12.30
2022-11-01T20:26:07.632Z,12.30
2022-11-01T20:46:08.556Z,12.10
2022-11-01T20:48:35.650Z,12.10
2022-11-01T20:51:02.772Z,12.00
2022-11-01T21:06:38.237Z,11.90
2022-11-01T21:09:30.864Z,11.80
2022-11-01T21:24:58.573Z,11.70
2022-11-01T21:34:40.854Z,11.50
2022-11-01T21:37:09.136Z,11.60
2022-11-01T21:42:50.007Z,11.40
2022-11-01T22:17:38.302Z,11.00
2022-11-01T22:20:05.892Z,11.00
2022-11-01T22:22:33.457Z,10.90
2022-11-01T22:25:00.573Z,10.90
2022-11-01T22:27:27.632Z,10.90
2022-11-01T22:47:24.961Z,10.70
2022-11-01T22:49:54.584Z,10.60
2022-11-01T22:52:48.606Z,10.60
2022-11-01T22:55:23.562Z,10.50
2022-11-01T23:07:21.080Z,10.40
2022-11-01T23:09:49.236Z,10.30
2022-11-01T23:12:42.711Z,10.30
2022-11-01T23:15:30.537Z,10.30
2022-11-01T23:19:14.779Z,10.20
2022-11-01T23:21:42.087Z,10.20
2022-11-01T23:24:09.183Z,10.20
2022-11-01T23:27:36.371Z,10.20
2022-11-01T23:30:03.726Z,10.10
2022-11-01T23:32:31.774Z,10.10
2022-11-01T23:35:14.249Z,10.10
2022-11-01T23:37:42.890Z,10.10
